createdAt,value
2018-05-27T00:02:10.409Z,3.40
2018-05-27T00:04:38.003Z,3.37
2018-05-27T00:07:06.328Z,3.10
2018-05-27T00:09:33.889Z,3.57
2018-05-27T00:12:01.448Z,3.37
2018-05-27T00:14:29.005Z,3.03
2018-05-27T00:16:56.589Z,3.00
2018-05-27T00:19:24.166Z,3.40
2018-05-27T00:21:51.720Z,3.10
2018-05-27T00:24:19.281Z,3.63
2018-05-27T00:26:46.843Z,3.40
2018-05-27T00:29:14.430Z,3.77
2018-05-27T00:31:41.988Z,3.37
2018-05-27T00:34:09.545Z,3.60
2018-05-27T00:36:37.885Z,3.57
2018-05-27T00:39:05.442Z,3.40
2018-05-27T00:41:33.024Z,3.00
2018-05-27T00:44:00.584Z,3.67
2018-05-27T00:46:28.142Z,3.30
2018-05-27T00:48:55.712Z,3.70
2018-05-27T00:51:23.270Z,3.60
2018-05-27T00:53:59.355Z,3.30
2018-05-27T00:56:26.916Z,3.10
2018-05-27T00:58:54.482Z,3.07
2018-05-27T01:01:22.032Z,3.23
2018-05-27T01:03:49.588Z,3.20
2018-05-27T01:06:17.176Z,4.13
2018-05-27T01:08:44.737Z,3.50
2018-05-27T01:11:12.300Z,3.97
2018-05-27T01:13:39.856Z,4.17
2018-05-27T01:16:07.419Z,3.63
2018-05-27T01:18:35.004Z,4.20
2018-05-27T01:21:02.556Z,3.70
2018-05-27T01:23:30.125Z,3.83
2018-05-27T01:25:57.680Z,3.90
2018-05-27T01:28:25.236Z,3.47
2018-05-27T01:30:53.590Z,4.30
2018-05-27T01:33:21.142Z,4.40
2018-05-27T01:35:48.696Z,4.10
2018-05-27T01:38:16.252Z,4.07
2018-05-27T01:40:43.985Z,4.13
2018-05-27T01:43:11.564Z,3.73
2018-05-27T01:45:39.118Z,4.03
2018-05-27T01:48:06.669Z,4.20
2018-05-27T01:50:34.233Z,3.87
2018-05-27T01:53:01.796Z,4.37
2018-05-27T01:55:29.365Z,4.83
2018-05-27T01:57:56.921Z,4.10
2018-05-27T02:00:24.477Z,4.10
2018-05-27T02:02:52.024Z,4.47
2018-05-27T02:05:19.576Z,4.37
2018-05-27T02:07:47.156Z,4.37
2018-05-27T02:10:14.711Z,4.00
2018-05-27T02:12:42.260Z,4.00
2018-05-27T02:15:09.816Z,4.10
2018-05-27T02:17:37.420Z,4.77
2018-05-27T02:20:05.759Z,4.70
2018-05-27T02:22:33.316Z,4.20
2018-05-27T02:25:00.868Z,4.10
2018-05-27T02:27:28.423Z,4.17
2018-05-27T02:29:55.983Z,3.60
2018-05-27T02:32:23.573Z,3.23
2018-05-27T02:34:51.124Z,4.47
2018-05-27T02:37:18.681Z,4.17
2018-05-27T02:39:46.237Z,3.90
2018-05-27T02:42:13.865Z,3.87
2018-05-27T02:44:41.441Z,4.43
2018-05-27T02:47:08.996Z,4.10
2018-05-27T02:49:36.558Z,4.20
2018-05-27T02:52:04.112Z,3.40
2018-05-27T02:54:31.664Z,4.20
2018-05-27T02:56:59.256Z,4.83
2018-05-27T02:59:26.812Z,4.50
2018-05-27T03:01:54.381Z,4.30
2018-05-27T03:04:22.705Z,4.70
2018-05-27T03:06:50.266Z,4.50
2018-05-27T03:09:17.844Z,4.33
2018-05-27T03:11:45.404Z,3.80
2018-05-27T03:14:12.959Z,4.30
2018-05-27T03:16:40.517Z,4.33
2018-05-27T03:19:08.072Z,3.77
2018-05-27T03:21:35.653Z,4.03
2018-05-27T03:24:04.176Z,3.83
2018-05-27T03:26:31.734Z,3.63
2018-05-27T03:29:00.577Z,3.97
2018-05-27T03:31:28.131Z,3.67
2018-05-27T03:33:55.712Z,3.27
2018-05-27T03:36:23.290Z,3.50
2018-05-27T03:38:50.854Z,3.40
2018-05-27T03:41:18.416Z,3.33
2018-05-27T03:43:45.980Z,3.50
2018-05-27T03:46:13.553Z,3.33
2018-05-27T03:48:41.104Z,3.80
2018-05-27T03:51:08.660Z,3.47
2018-05-27T03:53:36.220Z,3.20
2018-05-27T03:56:03.806Z,3.10
2018-05-27T03:58:31.391Z,3.00
2018-05-27T04:00:59.712Z,2.97
2018-05-27T04:03:27.273Z,3.10
2018-05-27T04:06:06.756Z,3.50
2018-05-27T04:08:35.083Z,2.70
2018-05-27T04:11:02.710Z,3.07
2018-05-27T04:13:30.278Z,2.90
2018-05-27T04:15:57.833Z,3.30
2018-05-27T04:18:25.388Z,3.20
2018-05-27T04:20:52.944Z,3.10
2018-05-27T04:23:20.556Z,3.23
2018-05-27T04:25:48.108Z,3.00
2018-05-27T04:28:15.668Z,3.20
2018-05-27T04:30:43.288Z,3.20
2018-05-27T04:33:10.839Z,3.07
2018-05-27T04:35:39.167Z,3.00
2018-05-27T04:38:06.718Z,3.00
2018-05-27T04:40:34.268Z,2.80
2018-05-27T04:43:01.844Z,2.97
2018-05-27T04:45:29.399Z,2.70
2018-05-27T04:47:56.953Z,3.00
2018-05-27T04:50:24.522Z,2.90
2018-05-27T04:52:52.079Z,3.50
2018-05-27T04:55:19.671Z,3.03
2018-05-27T04:57:47.232Z,3.00
2018-05-27T05:00:15.554Z,3.37
2018-05-27T05:02:43.117Z,2.90
2018-05-27T05:05:10.672Z,2.70
2018-05-27T05:07:38.279Z,2.73
2018-05-27T05:10:05.841Z,2.97
2018-05-27T05:12:34.164Z,2.90
2018-05-27T05:15:01.730Z,3.20
2018-05-27T05:17:29.302Z,2.90
2018-05-27T05:19:56.882Z,3.10
2018-05-27T05:22:24.442Z,2.70
2018-05-27T05:24:52.008Z,2.80
2018-05-27T05:27:20.348Z,3.20
2018-05-27T05:29:47.908Z,3.17
2018-05-27T05:32:15.464Z,2.80
2018-05-27T05:34:43.024Z,2.77
2018-05-27T05:37:10.583Z,2.97
2018-05-27T05:39:38.132Z,2.90
2018-05-27T05:42:05.684Z,2.73
2018-05-27T05:44:33.240Z,2.90
2018-05-27T05:47:00.800Z,2.80
2018-05-27T05:49:28.360Z,2.83
2018-05-27T05:51:55.924Z,2.93
2018-05-27T05:54:23.480Z,2.83
2018-05-27T05:56:51.044Z,2.70
2018-05-27T05:59:18.608Z,2.80
2018-05-27T06:01:46.176Z,2.50
2018-05-27T06:04:13.729Z,2.70
2018-05-27T06:06:41.285Z,2.80
2018-05-27T06:09:09.609Z,2.50
2018-05-27T06:11:37.175Z,2.60
2018-05-27T06:14:04.772Z,2.60
2018-05-27T06:16:32.328Z,2.43
2018-05-27T06:19:00.648Z,2.60
2018-05-27T06:21:28.204Z,2.57
2018-05-27T06:23:55.758Z,2.60
2018-05-27T06:26:23.468Z,2.50
2018-05-27T06:28:51.019Z,2.27
2018-05-27T06:31:19.768Z,2.17
2018-05-27T06:33:47.327Z,2.50
2018-05-27T06:36:15.395Z,2.57
2018-05-27T06:38:42.992Z,2.40
2018-05-27T06:41:10.569Z,2.13
2018-05-27T06:43:38.128Z,2.27
2018-05-27T06:46:05.680Z,2.33
2018-05-27T06:48:33.249Z,2.43
2018-05-27T06:51:00.833Z,2.33
2018-05-27T06:53:30.090Z,2.20
2018-05-27T06:55:57.659Z,2.30
2018-05-27T06:58:25.212Z,2.10
2018-05-27T07:00:52.776Z,2.10
2018-05-27T07:03:20.361Z,2.10
2018-05-27T07:05:48.680Z,2.10
2018-05-27T07:08:16.241Z,2.27
2018-05-27T07:10:43.796Z,2.10
2018-05-27T07:13:11.368Z,2.00
2018-05-27T07:15:39.012Z,1.90
2018-05-27T07:18:06.568Z,1.80
2018-05-27T07:20:34.127Z,2.20
2018-05-27T07:23:01.685Z,1.80
2018-05-27T07:25:29.242Z,2.07
2018-05-27T07:27:56.833Z,2.00
2018-05-27T07:30:24.412Z,2.03
2018-05-27T07:32:52.048Z,2.00
2018-05-27T07:35:19.608Z,1.80
2018-05-27T07:37:47.164Z,2.00
2018-05-27T07:40:14.841Z,2.13
2018-05-27T07:42:42.425Z,2.20
2018-05-27T07:45:10.001Z,1.90
2018-05-27T07:47:38.320Z,2.27
2018-05-27T07:50:06.650Z,2.20
2018-05-27T07:52:34.784Z,2.00
2018-05-27T07:55:02.961Z,2.17
2018-05-27T07:57:30.551Z,1.97
2018-05-27T07:59:58.198Z,2.33
2018-05-27T08:02:25.776Z,2.23
2018-05-27T08:04:53.368Z,2.30
2018-05-27T08:07:20.949Z,2.03
2018-05-27T08:09:49.297Z,1.97
2018-05-27T08:12:17.112Z,2.00
2018-05-27T08:14:45.831Z,2.17
2018-05-27T08:17:13.410Z,1.90
2018-05-27T08:19:40.983Z,1.97
2018-05-27T08:22:08.544Z,2.10
2018-05-27T08:24:36.103Z,2.13
2018-05-27T08:27:03.669Z,2.23
2018-05-27T08:29:32.016Z,1.90
2018-05-27T08:32:00.146Z,1.73
2018-05-27T08:34:27.708Z,1.90
2018-05-27T08:36:56.427Z,2.43
2018-05-27T08:39:24.020Z,2.00
2018-05-27T08:41:52.395Z,1.73
2018-05-27T08:44:20.721Z,1.87
2018-05-27T08:46:48.295Z,2.03
2018-05-27T08:49:15.854Z,1.90
2018-05-27T08:51:43.440Z,2.03
2018-05-27T08:54:11.790Z,2.03
2018-05-27T08:56:41.271Z,1.77
2018-05-27T08:59:08.920Z,2.10
2018-05-27T09:01:36.487Z,2.30
2018-05-27T09:04:04.091Z,1.73
2018-05-27T09:06:32.578Z,2.10
2018-05-27T09:09:00.964Z,1.90
2018-05-27T09:11:29.478Z,1.70
2018-05-27T09:13:57.146Z,1.67
2018-05-27T09:16:24.720Z,2.00
2018-05-27T09:18:52.304Z,1.80
2018-05-27T09:21:19.861Z,2.00
2018-05-27T09:23:48.185Z,1.93
2018-05-27T09:26:15.959Z,2.07
2018-05-27T09:28:43.525Z,2.20
2018-05-27T09:31:11.163Z,1.60
2018-05-27T09:33:38.731Z,1.80
2018-05-27T09:36:06.319Z,1.87
2018-05-27T09:38:33.874Z,1.70
2018-05-27T09:41:01.433Z,1.70
2018-05-27T09:43:29.019Z,1.80
2018-05-27T09:45:57.341Z,1.50
2018-05-27T09:48:24.901Z,1.90
2018-05-27T09:50:52.458Z,1.63
2018-05-27T09:53:20.029Z,1.83
2018-05-27T09:55:47.640Z,1.80
2018-05-27T09:58:15.192Z,1.80
2018-05-27T10:00:42.748Z,1.70
2018-05-27T10:03:11.070Z,1.70
2018-05-27T10:05:38.658Z,1.83
2018-05-27T10:08:07.003Z,2.03
2018-05-27T10:10:34.565Z,2.50
2018-05-27T10:13:02.124Z,1.90
2018-05-27T10:15:29.680Z,2.13
2018-05-27T10:17:57.247Z,2.17
2018-05-27T10:20:24.821Z,2.20
2018-05-27T10:22:52.390Z,2.30
2018-05-27T10:25:19.944Z,2.07
2018-05-27T10:27:47.524Z,2.20
2018-05-27T10:30:15.851Z,2.30
2018-05-27T10:32:43.460Z,2.27
2018-05-27T10:35:11.033Z,2.33
2018-05-27T10:37:38.592Z,2.30
2018-05-27T10:40:06.152Z,2.67
2018-05-27T10:42:33.700Z,2.10
2018-05-27T10:45:01.309Z,2.53
2018-05-27T10:47:28.877Z,2.53
2018-05-27T10:49:56.429Z,2.30
2018-05-27T10:52:23.988Z,2.60
2018-05-27T10:54:51.558Z,2.27
2018-05-27T10:57:19.168Z,2.57
2018-05-27T10:59:46.948Z,2.23
2018-05-27T11:02:14.514Z,2.37
2018-05-27T11:04:42.081Z,2.50
2018-05-27T11:07:09.636Z,2.10
2018-05-27T11:09:37.226Z,2.40
2018-05-27T11:12:04.791Z,2.67
2018-05-27T11:14:33.114Z,2.50
2018-05-27T11:17:00.670Z,2.70
2018-05-27T11:19:28.222Z,2.40
2018-05-27T11:21:56.567Z,2.50
2018-05-27T11:24:24.166Z,2.20
2018-05-27T11:26:51.735Z,2.57
2018-05-27T11:29:19.288Z,2.10
2018-05-27T11:31:46.841Z,2.63
2018-05-27T11:34:14.398Z,2.20
2018-05-27T11:36:41.949Z,2.20
2018-05-27T11:39:09.512Z,2.20
2018-05-27T11:41:38.948Z,2.30
2018-05-27T11:44:06.506Z,2.30
2018-05-27T11:46:34.075Z,2.20
2018-05-27T11:49:01.648Z,1.90
2018-05-27T11:51:29.200Z,1.90
2018-05-27T11:53:57.524Z,2.40
2018-05-27T11:56:25.107Z,2.23
2018-05-27T11:58:52.656Z,2.20
2018-05-27T12:01:20.231Z,1.90
2018-05-27T12:03:47.784Z,2.30
2018-05-27T12:06:15.338Z,2.40
2018-05-27T12:08:43.316Z,2.20
2018-05-27T12:11:10.872Z,2.17
2018-05-27T12:13:38.455Z,2.17
2018-05-27T12:16:06.778Z,2.10
2018-05-27T12:18:34.332Z,2.20
2018-05-27T12:21:01.888Z,2.00
2018-05-27T12:23:29.449Z,2.00
2018-05-27T12:25:57.028Z,1.90
2018-05-27T12:28:24.582Z,2.10
2018-05-27T12:30:52.141Z,1.70
2018-05-27T12:33:19.704Z,1.87
2018-05-27T12:35:47.260Z,2.00
2018-05-27T12:38:14.844Z,2.03
2018-05-27T12:40:42.423Z,2.20
2018-05-27T12:43:09.984Z,2.10
2018-05-27T12:45:37.536Z,2.20
2018-05-27T12:48:05.248Z,2.30
2018-05-27T12:50:33.027Z,2.00
2018-05-27T12:53:00.667Z,2.10
2018-05-27T12:55:28.248Z,1.97
2018-05-27T12:57:55.802Z,2.00
2018-05-27T13:00:23.375Z,1.70
2018-05-27T13:02:50.960Z,1.90
2018-05-27T13:05:18.525Z,1.80
2018-05-27T13:07:46.076Z,2.00
2018-05-27T13:10:13.666Z,2.10
2018-05-27T13:12:41.269Z,2.10
2018-05-27T13:15:08.852Z,1.80
2018-05-27T13:17:36.412Z,2.07
2018-05-27T13:20:03.976Z,2.43
2018-05-27T13:22:31.552Z,1.80
2018-05-27T13:24:59.100Z,2.00
2018-05-27T13:27:26.687Z,1.80
2018-05-27T13:29:54.268Z,1.97
2018-05-27T13:32:21.832Z,1.93
2018-05-27T13:34:49.384Z,2.30
2018-05-27T13:37:17.062Z,1.93
2018-05-27T13:39:44.658Z,1.77
2018-05-27T13:42:12.220Z,1.80
2018-05-27T13:44:39.786Z,1.57
2018-05-27T13:47:07.341Z,1.70
2018-05-27T13:49:34.915Z,1.53
2018-05-27T13:52:02.493Z,1.53
2018-05-27T13:54:31.003Z,1.90
2018-05-27T13:56:58.562Z,1.53
2018-05-27T13:59:26.908Z,1.60
2018-05-27T14:01:54.481Z,1.80
2018-05-27T14:04:22.032Z,1.77
2018-05-27T14:06:49.590Z,1.70
2018-05-27T14:09:17.141Z,1.57
2018-05-27T14:11:44.727Z,1.80
2018-05-27T14:14:12.284Z,1.70
2018-05-27T14:16:39.848Z,1.80
2018-05-27T14:19:08.709Z,1.60
2018-05-27T14:21:39.203Z,1.77
2018-05-27T14:24:08.768Z,1.90
2018-05-27T14:26:37.417Z,1.90
2018-05-27T14:29:05.060Z,1.80
2018-05-27T14:31:32.616Z,1.60
2018-05-27T14:34:00.435Z,1.60
2018-05-27T14:36:28.032Z,1.60
2018-05-27T14:38:55.703Z,1.90
2018-05-27T14:41:23.262Z,1.50
2018-05-27T14:43:50.821Z,1.40
2018-05-27T14:46:18.383Z,1.57
2018-05-27T14:48:45.981Z,1.60
2018-05-27T14:51:13.532Z,1.40
2018-05-27T14:53:41.851Z,1.70
2018-05-27T14:56:09.408Z,1.50
2018-05-27T14:58:36.964Z,1.50
2018-05-27T15:01:04.536Z,1.70
2018-05-27T15:03:32.088Z,1.57
2018-05-27T15:05:59.640Z,1.80
2018-05-27T15:08:27.200Z,1.50
2018-05-27T15:10:54.769Z,1.40
2018-05-27T15:13:22.366Z,1.53
2018-05-27T15:15:49.928Z,1.40
2018-05-27T15:18:18.252Z,1.30
2018-05-27T15:20:45.808Z,1.30
2018-05-27T15:23:13.457Z,1.60
2018-05-27T15:25:41.046Z,1.83
2018-05-27T15:28:08.600Z,1.30
2018-05-27T15:30:36.924Z,1.30
2018-05-27T15:33:04.488Z,1.43
2018-05-27T15:35:32.821Z,1.27
2018-05-27T15:38:01.180Z,1.40
2018-05-27T15:40:28.748Z,1.40
2018-05-27T15:42:56.303Z,1.47
2018-05-27T15:45:23.876Z,1.50
2018-05-27T15:47:52.206Z,1.20
2018-05-27T15:50:19.808Z,1.40
2018-05-27T15:52:47.633Z,1.17
2018-05-27T15:55:15.191Z,1.20
2018-05-27T15:57:42.744Z,1.37
2018-05-27T16:00:10.301Z,1.17
2018-05-27T16:02:37.876Z,1.17
2018-05-27T16:05:05.433Z,1.07
2018-05-27T16:07:32.984Z,1.20
2018-05-27T16:10:00.572Z,1.00
2018-05-27T16:12:28.248Z,1.50
2018-05-27T16:14:56.600Z,1.30
2018-05-27T16:17:24.156Z,1.50
2018-05-27T16:19:51.712Z,1.63
2018-05-27T16:22:19.296Z,1.87
2018-05-27T16:24:46.875Z,1.43
2018-05-27T16:27:14.457Z,1.53
2018-05-27T16:29:42.954Z,1.50
2018-05-27T16:32:10.516Z,1.40
2018-05-27T16:34:38.081Z,1.40
2018-05-27T16:37:05.674Z,1.27
2018-05-27T16:39:33.324Z,1.10
2018-05-27T16:42:00.883Z,0.90
2018-05-27T16:44:28.508Z,1.20
2018-05-27T16:46:56.090Z,1.30
2018-05-27T16:49:23.672Z,1.30
2018-05-27T16:51:51.257Z,1.33
2018-05-27T16:54:18.813Z,1.30
2018-05-27T16:56:46.437Z,1.30
2018-05-27T16:59:14.016Z,1.30
2018-05-27T17:01:41.604Z,1.37
2018-05-27T17:04:09.227Z,1.30
2018-05-27T17:06:36.818Z,1.00
2018-05-27T17:09:05.242Z,1.07
2018-05-27T17:11:32.866Z,1.20
2018-05-27T17:14:00.470Z,1.00
2018-05-27T17:16:28.089Z,1.27
2018-05-27T17:18:55.676Z,0.90
2018-05-27T17:21:23.352Z,1.37
2018-05-27T17:23:50.916Z,1.37
2018-05-27T17:26:18.559Z,1.50
2018-05-27T17:28:46.135Z,1.10
2018-05-27T17:31:14.573Z,1.20
2018-05-27T17:33:42.241Z,1.00
2018-05-27T17:36:09.805Z,1.07
2018-05-27T17:38:37.357Z,1.30
2018-05-27T17:41:04.936Z,1.00
2018-05-27T17:43:32.497Z,1.10
2018-05-27T17:46:00.285Z,0.93
2018-05-27T17:48:28.021Z,1.30
2018-05-27T17:50:55.584Z,1.03
2018-05-27T17:53:24.115Z,1.00
2018-05-27T17:55:51.668Z,1.20
2018-05-27T17:58:19.240Z,0.97
2018-05-27T18:00:46.792Z,1.10
2018-05-27T18:03:14.351Z,1.07
2018-05-27T18:05:41.907Z,1.03
2018-05-27T18:08:09.471Z,0.90
2018-05-27T18:10:37.027Z,1.20
2018-05-27T18:13:04.648Z,1.43
2018-05-27T18:15:32.222Z,1.23
2018-05-27T18:17:59.808Z,0.90
2018-05-27T18:20:27.403Z,1.10
2018-05-27T18:22:54.955Z,1.00
2018-05-27T18:25:22.515Z,1.00
2018-05-27T18:27:50.101Z,1.00
2018-05-27T18:30:18.428Z,1.10
2018-05-27T18:32:45.983Z,1.53
2018-05-27T18:35:13.543Z,1.17
2018-05-27T18:37:41.102Z,1.30
2018-05-27T18:40:08.688Z,1.20
2018-05-27T18:42:36.286Z,0.90
2018-05-27T18:45:03.840Z,1.00
2018-05-27T18:47:32.092Z,1.27
2018-05-27T18:49:59.648Z,1.10
2018-05-27T18:52:28.016Z,0.90
2018-05-27T18:54:56.346Z,1.40
2018-05-27T18:57:23.911Z,1.10
2018-05-27T18:59:52.284Z,1.30
2018-05-27T19:02:19.842Z,1.10
2018-05-27T19:04:47.417Z,1.53
2018-05-27T19:07:14.975Z,1.00
2018-05-27T19:09:43.100Z,1.13
2018-05-27T19:12:11.416Z,0.97
2018-05-27T19:14:38.981Z,0.90
2018-05-27T19:17:07.152Z,1.10
2018-05-27T19:19:36.313Z,1.00
2018-05-27T19:22:03.864Z,1.20
2018-05-27T19:24:31.429Z,1.20
2018-05-27T19:26:58.988Z,0.97
2018-05-27T19:29:26.556Z,1.20
2018-05-27T19:31:54.136Z,1.17
2018-05-27T19:34:21.692Z,1.20
2018-05-27T19:36:49.252Z,1.20
2018-05-27T19:39:16.804Z,1.43
2018-05-27T19:41:44.352Z,1.33
2018-05-27T19:44:11.934Z,1.30
2018-05-27T19:46:40.300Z,1.40
2018-05-27T19:49:07.914Z,1.27
2018-05-27T19:51:36.369Z,1.07
2018-05-27T19:54:03.932Z,0.90
2018-05-27T19:56:31.516Z,1.13
2018-05-27T19:58:59.097Z,1.20
2018-05-27T20:01:26.672Z,1.00
2018-05-27T20:03:54.228Z,1.07
2018-05-27T20:06:21.789Z,1.10
2018-05-27T20:08:49.384Z,1.17
2018-05-27T20:11:16.950Z,1.20
2018-05-27T20:13:45.865Z,1.70
2018-05-27T20:16:13.429Z,1.00
2018-05-27T20:18:40.993Z,1.23
2018-05-27T20:21:08.582Z,1.10
2018-05-27T20:23:36.152Z,1.10
2018-05-27T20:26:03.725Z,1.17
2018-05-27T20:28:31.280Z,1.13
2018-05-27T20:30:59.624Z,0.70
2018-05-27T20:33:27.211Z,1.30
2018-05-27T20:35:55.536Z,1.03
2018-05-27T20:38:23.096Z,0.97
2018-05-27T20:40:50.676Z,1.17
2018-05-27T20:43:18.232Z,1.40
2018-05-27T20:45:45.816Z,0.93
2018-05-27T20:48:13.380Z,1.30
2018-05-27T20:50:41.706Z,1.20
2018-05-27T20:53:09.284Z,1.10
2018-05-27T20:55:36.840Z,1.27
2018-05-27T20:58:04.420Z,1.30
2018-05-27T21:00:31.973Z,1.33
2018-05-27T21:02:59.524Z,1.23
2018-05-27T21:05:27.084Z,1.10
2018-05-27T21:07:54.640Z,1.30
2018-05-27T21:10:22.220Z,1.03
2018-05-27T21:12:49.780Z,1.00
2018-05-27T21:15:18.100Z,1.03
2018-05-27T21:17:45.660Z,1.27
2018-05-27T21:20:13.218Z,1.23
2018-05-27T21:22:40.808Z,1.23
2018-05-27T21:25:08.364Z,1.57
2018-05-27T21:27:35.921Z,1.63
2018-05-27T21:30:03.472Z,1.20
2018-05-27T21:32:31.034Z,1.10
2018-05-27T21:34:58.604Z,0.93
2018-05-27T21:37:26.157Z,0.90
2018-05-27T21:39:53.712Z,1.40
2018-05-27T21:42:21.272Z,1.30
2018-05-27T21:44:48.832Z,1.10
2018-05-27T21:47:16.410Z,1.13
2018-05-27T21:49:44.490Z,1.07
2018-05-27T21:52:12.055Z,1.20
2018-05-27T21:54:39.612Z,1.00
2018-05-27T21:57:07.179Z,1.00
2018-05-27T21:59:34.788Z,1.07
2018-05-27T22:02:02.348Z,1.03
2018-05-27T22:04:29.910Z,1.10
2018-05-27T22:06:57.460Z,1.53
2018-05-27T22:09:25.015Z,1.27
2018-05-27T22:11:52.598Z,1.30
2018-05-27T22:14:20.152Z,1.43
2018-05-27T22:16:47.714Z,1.00
2018-05-27T22:19:15.276Z,1.23
2018-05-27T22:21:42.834Z,1.30
2018-05-27T22:24:11.177Z,1.10
2018-05-27T22:26:38.732Z,1.27
2018-05-27T22:29:06.288Z,0.90
2018-05-27T22:31:33.840Z,1.17
2018-05-27T22:34:01.392Z,1.30
2018-05-27T22:36:28.980Z,1.33
2018-05-27T22:38:56.555Z,1.17
2018-05-27T22:41:24.881Z,1.40
2018-05-27T22:43:52.444Z,1.17
2018-05-27T22:46:20.001Z,1.57
2018-05-27T22:48:47.588Z,1.23
2018-05-27T22:51:15.153Z,1.20
2018-05-27T22:53:42.720Z,1.10
2018-05-27T22:56:10.280Z,1.27
2018-05-27T22:58:38.616Z,1.10
2018-05-27T23:01:06.248Z,1.10
2018-05-27T23:03:33.788Z,1.10
2018-05-27T23:06:01.351Z,1.63
2018-05-27T23:08:29.669Z,1.10
2018-05-27T23:10:57.218Z,1.10
2018-05-27T23:13:24.800Z,1.10
2018-05-27T23:15:52.348Z,1.20
2018-05-27T23:18:19.952Z,1.17
2018-05-27T23:20:47.506Z,1.10
2018-05-27T23:23:15.055Z,0.97
2018-05-27T23:25:43.396Z,0.90
2018-05-27T23:28:10.945Z,1.13
2018-05-27T23:30:38.493Z,1.10
2018-05-27T23:33:06.075Z,1.00
2018-05-27T23:35:33.624Z,1.30
2018-05-27T23:38:01.200Z,1.40
2018-05-27T23:40:28.760Z,1.27
2018-05-27T23:42:56.308Z,1.40
2018-05-27T23:45:23.856Z,1.47
2018-05-27T23:47:51.409Z,1.80
2018-05-27T23:50:18.988Z,1.60
2018-05-27T23:52:46.546Z,1.57
2018-05-27T23:55:14.128Z,1.40
2018-05-27T23:57:42.469Z,1.60
